CJH2 weather

Gilbert Plains Airport
Gilbert Plains, Manitoba, Canada

Public forecast

Using degrees Celsius for public forecast. Weather courtesy of forecast.io.

METAR (pilot weather report)

Closest report is Dauphin Barker Airport, 17.0 nm (31.5 km) E. Retrieved 2019/07/17 03:00 UTC (34 minutes ago):

CYDN 170300Z AUTO 06005KT 9SM FEW055 18/15 A2988 RMK SLP124 DENSITY ALT 1600FT

TAF (pilot weather forecast)

Forecast is more than 12 hours old.

Closest forecast is Dauphin Barker Airport, 17.0 nm (31.5 km) E. Retrieved 2019/07/16 00:48 UTC (1 day ago):

TAF CYDN 162345Z 1700/1712 08008KT P6SM FEW050 BKN250 FM170600 10006KT P6SM SCT020 BKN050 TEMPO 1706/1712 5SM -SHRA BR FEW008 BKN020 OVC040 RMK FCST BASED ON AUTO OBS. NXT FCST BY 170600Z